PST,Max TemperatureF,Mean TemperatureF,Min TemperatureF,Max Dew PointF,MeanDew PointF,Min DewpointF,Max Humidity, Mean Humidity, Min Humidity, Max Sea Level PressureIn, Mean Sea Level PressureIn, Min Sea Level PressureIn, Max VisibilityMiles, Mean VisibilityMiles, Min VisibilityMiles, Max Wind SpeedMPH, Mean Wind SpeedMPH, Max Gust SpeedMPH,PrecipitationIn, CloudCover, Events, WindDirDegrees
2013-2-1,51,44,38,47,42,39,100,98,76,30.42,30.38,30.34,10,5,0,8,3,,0.00,6,Fog,106
2013-2-2,43,38,33,43,39,34,100,99,93,30.39,30.32,30.25,10,3,0,6,3,,0.00,8,Fog,56
2013-2-3,46,39,32,45,38,32,100,98,87,30.33,30.28,30.23,10,7,0,9,3,,0.02,8,Fog-Rain,188
2013-2-4,51,45,39,45,43,39,99,88,72,30.23,30.10,29.92,10,10,10,7,4,,0.00,5,,188
2013-2-5,50,44,37,45,42,37,100,87,71,29.99,29.90,29.85,10,10,4,23,11,28,0.12,7,Rain,197
2013-2-6,49,45,41,45,41,37,100,90,66,30.08,29.99,29.79,10,10,10,14,9,,0.05,8,Rain,176
2013-2-7,48,38,26,43,36,26,99,84,58,30.20,29.97,29.80,10,10,8,22,11,30,0.05,5,Rain,193
2013-2-8,44,36,27,39,33,27,100,91,68,30.33,30.27,30.19,10,10,9,7,2,,0.00,7,Rain,47
2013-2-9,45,40,36,40,38,35,100,90,66,30.36,30.30,30.26,10,10,10,7,2,,0.00,8,,208
2013-2-10,46,42,38,41,37,35,100,83,66,30.39,30.36,30.34,10,10,10,13,3,,0.00,7,,1
2013-2-11,46,40,33,45,41,32,100,95,72,30.38,30.35,30.33,10,8,0,8,3,,0.02,8,Fog-Rain,169
2013-2-12,51,46,42,48,45,43,100,95,79,30.42,30.37,30.34,10,10,6,18,8,26,0.00,8,,195
2013-2-13,48,45,42,46,43,40,100,91,76,30.53,30.43,30.34,10,10,5,17,10,18,0.03,8,Rain,205
2013-2-14,48,41,34,46,43,35,100,96,87,30.57,30.54,30.50,10,10,6,6,3,,0.00,8,Rain,177
2013-2-15,53,44,35,46,41,34,100,95,70,30.56,30.36,30.18,10,7,1,9,3,,0.00,4,,34
2013-2-16,50,41,32,46,39,32,100,92,66,30.24,30.19,30.16,10,7,0,18,6,30,0.03,5,Fog-Rain,212
2013-2-17,46,40,33,39,36,34,100,88,63,30.27,30.20,30.12,10,10,10,13,8,,0.02,6,Rain,198
2013-2-18,45,40,34,38,36,34,100,87,67,30.11,29.93,29.76,10,10,2,10,3,,0.00,7,Rain,201
2013-2-19,50,39,28,41,37,28,100,88,58,30.02,29.81,29.73,10,10,10,10,2,,0.01,6,Rain,279
2013-2-20,45,36,27,41,37,27,100,91,70,30.07,30.02,29.99,10,8,0,15,4,,0.08,7,Fog-Rain,174
2013-2-21,43,40,37,41,40,36,100,97,87,30.12,30.06,30.01,10,10,2,21,8,29,0.09,7,Rain,195
2013-2-22,46,42,37,45,40,34,100,93,76,30.10,29.88,29.73,10,9,3,29,13,37,0.49,7,Rain,192
2013-2-23,47,41,35,39,36,32,100,85,59,30.41,30.15,29.97,10,10,10,16,12,24,0.00,4,,206
2013-2-24,48,44,39,37,35,32,86,70,56,30.41,30.24,29.97,10,10,10,20,11,26,0.01,8,Rain,178
2013-2-25,49,42,32,41,38,32,100,87,52,30.33,30.06,29.92,10,10,5,23,13,36,0.12,5,Rain,200
2013-2-26,47,39,31,37,34,31,98,78,55,30.37,30.29,30.20,10,10,10,12,7,,0.00,7,Rain,181
2013-2-27,50,44,38,45,42,36,100,91,76,30.34,30.27,30.20,10,10,7,10,5,,0.10,8,Rain,30
2013-2-28,53,48,42,52,49,42,100,99,93,30.35,30.26,30.19,10,8,2,13,4,,0.56,8,Rain,167